^^
Grace C. Lehan Memorial Weather Station Historical Data
Daily Summary for April 14, 2021 Units:  Metric    English   Both
Daily Weekly Monthly Yearly
  High: Low: Average:
Temperature: 2.7 °C -2.3 °C -0.2 °C
Dew Point: -1.9 °C -7.1 °C -4.8 °C
Humidity: 80% 61.5% 72%
Wind Speed: 5km/h 0km/h 0.6km/h
Wind Gust: 17.7km/h - -
Wind- - SW
Pressure: 1024.3 hPa 1021.6 hPa -
Precipitation: 0.25 mm    
 
 
Tabular Data for April 14, 2021
Time Temperature Dew Point Pressure Wind Wind Speed Wind Gust Humidity Rainfall Rate (Hourly) solar
00:04 -2.2 °C -7.1 °C 1023.2 hPa Calm   6.4 km/h 69.3% 0 mm 0 W/m2
00:09 -2.2 °C -6.9 °C 1023.2 hPa North 0.2 km/h 3.2 km/h 70% 0 mm 0 W/m2
00:14 -2.2 °C -6.9 °C 1022.9 hPa North 1.1 km/h 8 km/h 70% 0 mm 0 W/m2
00:19 -2.3 °C -6.9 °C 1022.9 hPa North 0.2 km/h 8 km/h 70.3% 0 mm 0 W/m2
00:24 -2.3 °C -6.9 °C 1022.9 hPa NNE 1.4 km/h 11.3 km/h 70.7% 0 mm 0 W/m2
00:29 -2.3 °C -6.9 °C 1022.6 hPa NE 1 km/h 11.3 km/h 70.4% 0 mm 0 W/m2
00:34 -2.3 °C -6.8 °C 1022.9 hPa NE 0.2 km/h 11.3 km/h 71.1% 0 mm 0 W/m2
00:39 -2.3 °C -6.7 °C 1022.9 hPa Calm   3.2 km/h 71.9% 0 mm 0 W/m2
00:44 -2.3 °C -6.7 °C 1022.9 hPa NE 0.3 km/h 4.8 km/h 72% 0 mm 0 W/m2
00:49 -2.3 °C -6.7 °C 1023.2 hPa NNE 1 km/h 6.4 km/h 72% 0 mm 0 W/m2
00:54 -2.3 °C -6.6 °C 1022.9 hPa NNE 0.5 km/h 6.4 km/h 72.5% 0 mm 0 W/m2
00:59 -2.3 °C -6.4 °C 1022.9 hPa Calm   6.4 km/h 73% 0 mm 0 W/m2
01:04 -2.3 °C -6.4 °C 1022.6 hPa NNE 0.5 km/h 6.4 km/h 73.4% 0 mm 0 W/m2
01:09 -2.3 °C -6.3 °C 1022.6 hPa Calm   6.4 km/h 74% 0 mm 0 W/m2
01:14 -2.3 °C -6.3 °C 1022.6 hPa Calm   6.4 km/h 74% 0 mm 0 W/m2
01:19 -2.3 °C -6.2 °C 1022.6 hPa Calm   6.4 km/h 74.4% 0 mm 0 W/m2
01:24 -2.2 °C -6.1 °C 1022.2 hPa Calm   6.4 km/h 75% 0 mm 0 W/m2
01:29 -2.2 °C -6.1 °C 1022.2 hPa Calm   6.4 km/h 75% 0 mm 0 W/m2
01:34 -2.2 °C -6.1 °C 1022.2 hPa Calm   6.4 km/h 75% 0 mm 0 W/m2
01:39 -2.2 °C -6 °C 1022.2 hPa NNE 0.2 km/h 3.2 km/h 75% 0 mm 0 W/m2
01:44 -2.2 °C -5.9 °C 1021.9 hPa Calm   3.2 km/h 75.8% 0 mm 0 W/m2
01:49 -2.2 °C -5.8 °C 1022.2 hPa NNE 1 km/h 6.4 km/h 76% 0 mm 0 W/m2
01:54 -2.2 °C -5.8 °C 1021.9 hPa North 0.2 km/h 6.4 km/h 76% 0 mm 0 W/m2
01:59 -2.2 °C -5.8 °C 1022.2 hPa North 0.6 km/h 6.4 km/h 76% 0 mm 0 W/m2
02:04 -2.2 °C -5.7 °C 1022.2 hPa North 1.6 km/h 8 km/h 76.6% 0 mm 0 W/m2
02:09 -2.2 °C -5.7 °C 1022.2 hPa North 1.3 km/h 8 km/h 77% 0 mm 0 W/m2
02:14 -2.2 °C -5.7 °C 1022.2 hPa North 1.1 km/h 8 km/h 77% 0 mm 0 W/m2
02:19 -2.2 °C -5.5 °C 1022.2 hPa NNW 1.1 km/h 8 km/h 77.9% 0 mm 0 W/m2
02:24 -2.2 °C -5.5 °C 1022.6 hPa NNW 2.4 km/h 8 km/h 78% 0 mm 0 W/m2
02:29 -2.2 °C -5.6 °C 1022.6 hPa NNW 1.4 km/h 9.7 km/h 78% 0 mm 0 W/m2
02:34 -2.2 °C -5.6 °C 1022.6 hPa NNW 1.1 km/h 9.7 km/h 78% 0 mm 0 W/m2
02:39 -2.2 °C -5.4 °C 1022.2 hPa NNW 1.6 km/h 8 km/h 78.7% 0 mm 0 W/m2
02:44 -2.2 °C -5.4 °C 1022.2 hPa NNW 2.7 km/h 9.7 km/h 79% 0 mm 0 W/m2
02:49 -2.3 °C -5.4 °C 1022.2 hPa NNW 2.7 km/h 9.7 km/h 79% 0 mm 0 W/m2
02:54 -2.3 °C -5.4 °C 1022.2 hPa NNW 1.9 km/h 9.7 km/h 79% 0 mm 0 W/m2
02:59 -2.3 °C -5.4 °C 1022.2 hPa NNW 0.6 km/h 9.7 km/h 79% 0 mm 0 W/m2
03:04 -2.3 °C -5.3 °C 1022.2 hPa North 0.8 km/h 9.7 km/h 79.7% 0 mm 0 W/m2
03:09 -2.3 °C -5.3 °C 1022.2 hPa NNW 0.8 km/h 6.4 km/h 80% 0 mm 0 W/m2
03:14 -2.3 °C -5.3 °C 1022.2 hPa NNW 0.3 km/h 6.4 km/h 80% 0 mm 0 W/m2
03:19 -2.2 °C -5.2 °C 1022.2 hPa NNW 0.2 km/h 6.4 km/h 80% 0 mm 0 W/m2
03:24 -2.2 °C -5.2 °C 1022.2 hPa North 0.8 km/h 6.4 km/h 80% 0 mm 0 W/m2
03:29 -2.2 °C -5.2 °C 1021.9 hPa North 0.5 km/h 6.4 km/h 80% 0 mm 0 W/m2
03:34 -2.2 °C -5.2 °C 1021.9 hPa North 0.3 km/h 6.4 km/h 80% 0 mm 0 W/m2
03:39 -2.2 °C -5.2 °C 1021.9 hPa Calm   6.4 km/h 80% 0 mm 0 W/m2
03:44 -2.2 °C -5.2 °C 1021.6 hPa NE 0.5 km/h 6.4 km/h 80% 0 mm 0 W/m2
03:49 -2.2 °C -5.2 °C 1021.6 hPa NE 0.2 km/h 6.4 km/h 80% 0 mm 0 W/m2
03:54 -2.2 °C -5.2 °C 1021.6 hPa NE 0.5 km/h 6.4 km/h 80% 0 mm 0 W/m2
03:59 -2.2 °C -5.2 °C 1021.6 hPa NE 0.3 km/h 6.4 km/h 80% 0 mm 0 W/m2
04:00 -2.2 °C -5.2 °C 1021.6 hPa Calm   6.4 km/h 80% 0 mm 0 W/m2
04:09 -2.2 °C -5.2 °C 1021.6 hPa Calm     80% 0 mm 0 W/m2
04:14 -2.2 °C -5.2 °C 1021.6 hPa Calm   3.2 km/h 80% 0 mm 0 W/m2
04:19 -2.2 °C -5.2 °C 1021.6 hPa NNE 0.6 km/h 8 km/h 80% 0 mm 0 W/m2
04:24 -2.2 °C -5.2 °C 1021.6 hPa NNW 1.6 km/h 8 km/h 80% 0 mm 0 W/m2
04:29 -2.2 °C -5.2 °C 1021.6 hPa NNW 0.2 km/h 8 km/h 80% 0 mm 0 W/m2
04:34 -2.2 °C -5.2 °C 1021.6 hPa NNW 1 km/h 8 km/h 80% 0 mm 0 W/m2
04:39 -2.2 °C -5.2 °C 1021.6 hPa NNW 1.1 km/h 8 km/h 80% 0 mm 0 W/m2
04:44 -2.2 °C -5.2 °C 1021.6 hPa NNW 0.6 km/h 8 km/h 80% 0 mm 0 W/m2
04:49 -2.2 °C -5.2 °C 1021.9 hPa North 0.6 km/h 8 km/h 80% 0 mm 0 W/m2
04:54 -2.2 °C -5.2 °C 1021.9 hPa North 1 km/h 8 km/h 80% 0 mm 0 W/m2
04:59 -2.2 °C -5.2 °C 1021.9 hPa North 1.4 km/h 9.7 km/h 80% 0 mm 0 W/m2
05:04 -2.2 °C -5.3 °C 1021.9 hPa NNW 2.1 km/h 9.7 km/h 79.2% 0 mm 0 W/m2
05:09 -2.2 °C -5.4 °C 1021.9 hPa NNW 1.4 km/h 9.7 km/h 79% 0 mm 0 W/m2
05:14 -2.2 °C -5.4 °C 1021.9 hPa NNW 1.3 km/h 9.7 km/h 79% 0 mm 0 W/m2
05:19 -2.2 °C -5.4 °C 1021.9 hPa NNW 1.3 km/h 9.7 km/h 79% 0 mm 0 W/m2
05:24 -2.2 °C -5.4 °C 1021.9 hPa NNW 1 km/h 9.7 km/h 79% 0 mm 0 W/m2
05:29 -2.2 °C -5.4 °C 1021.9 hPa NNW 0.3 km/h 9.7 km/h 78.6% 0 mm 0 W/m2
05:34 -2.2 °C -5.6 °C 1022.2 hPa Calm   9.7 km/h 78% 0 mm 0 W/m2
05:39 -2.2 °C -5.5 °C 1022.2 hPa NNW 0.6 km/h 9.7 km/h 78% 0 mm 0 W/m2
05:44 -2.2 °C -5.5 °C 1022.2 hPa NNW 0.6 km/h 9.7 km/h 78% 0 mm 0 W/m2
05:49 -2.2 °C -5.5 °C 1022.2 hPa North 0.5 km/h 9.7 km/h 78% 0 mm 0 W/m2
05:54 -2.2 °C -5.4 °C 1022.2 hPa NNE 0.3 km/h 9.7 km/h 78% 0 mm 0 W/m2
05:59 -2.1 °C -5.4 °C 1022.2 hPa North 0.5 km/h 9.7 km/h 78% 0 mm 0 W/m2
06:04 -2.2 °C -5.4 °C 1022.2 hPa NNW 0.8 km/h 9.7 km/h 78% 0 mm 0 W/m2
06:09 -2.2 °C -5.6 °C 1022.2 hPa NNW 1.9 km/h 8 km/h 77% 0 mm 0 W/m2
06:14 -2.2 °C -5.7 °C 1022.2 hPa NNW 1.3 km/h 8 km/h 77% 0 mm 0 W/m2
06:19 -2.2 °C -5.8 °C 1022.2 hPa NNW 0.6 km/h 8 km/h 76.3% 0 mm 0 W/m2
06:24 -2.2 °C -5.8 °C 1022.6 hPa NNW 1.1 km/h 9.7 km/h 76% 0 mm 0 W/m2
06:29 -2.2 °C -5.9 °C 1022.6 hPa Calm   9.7 km/h 75.1% 0 mm 0 W/m2
06:34 -2.2 °C -6 °C 1022.6 hPa NNW 1 km/h 9.7 km/h 75% 0 mm 0 W/m2
06:39 -2.2 °C -6.1 °C 1022.6 hPa NNW 1.4 km/h 6.4 km/h 74.2% 0 mm 0 W/m2
06:44 -2.2 °C -6.2 °C 1022.6 hPa NNW 0.6 km/h 6.4 km/h 73.7% 0 mm 0 W/m2
06:49 -2.2 °C -6.3 °C 1022.6 hPa NNW 1 km/h 6.4 km/h 73% 0 mm 0 W/m2
06:54 -2.2 °C -6.3 °C 1022.9 hPa North 0.5 km/h 6.4 km/h 73% 0 mm 0 W/m2
06:59 -2.2 °C -6.4 °C 1022.9 hPa Calm   6.4 km/h 72.5% 0 mm 0 W/m2
07:04 -2.1 °C -6.4 °C 1022.6 hPa North 0.3 km/h 6.4 km/h 72.6% 0 mm 7 W/m2
07:09 -2.1 °C -6.4 °C 1022.9 hPa North 0.3 km/h 4.8 km/h 72.2% 0 mm 7 W/m2
07:14 -2.1 °C -6.4 °C 1022.6 hPa Calm   4.8 km/h 72% 0 mm 12 W/m2
07:19 -2.1 °C -6.4 °C 1022.6 hPa North 0.2 km/h 4.8 km/h 72% 0 mm 21 W/m2
07:24 -2 °C -6.3 °C 1022.6 hPa North 0.2 km/h 4.8 km/h 72% 0 mm 23 W/m2
07:29 -1.9 °C -6.3 °C 1022.9 hPa Calm   4.8 km/h 71.8% 0 mm 32 W/m2
07:34 -1.9 °C -6.3 °C 1022.9 hPa Calm   4.8 km/h 71.8% 0 mm 25 W/m2
07:39 -1.8 °C -6.3 °C 1022.9 hPa North 0.2 km/h 3.2 km/h 71.3% 0 mm 26 W/m2
07:44 -1.8 °C -6.3 °C 1022.9 hPa Calm   3.2 km/h 71% 0 mm 35 W/m2
07:49 -1.7 °C -6.4 °C 1022.9 hPa North 1.6 km/h 6.4 km/h 70.2% 0 mm 39 W/m2
07:54 -1.7 °C -6.4 °C 1022.9 hPa NNW 2.4 km/h 11.3 km/h 70% 0 mm 42 W/m2
07:59 -1.6 °C -6.4 °C 1023.2 hPa NNW 2.3 km/h 11.3 km/h 69.6% 0 mm 49 W/m2
08:00 -1.6 °C -6.6 °C 1023.2 hPa NNW 1.6 km/h 11.3 km/h 69% 0 mm 49 W/m2
08:09 -1.6 °C -6.3 °C 1023.2 hPa Calm   3.2 km/h 69.7% 0 mm 67 W/m2
08:14 -1.4 °C -6.3 °C 1023.2 hPa NNW 1.3 km/h 6.4 km/h 69.5% 0 mm 70 W/m2
08:19 -1.4 °C -6.3 °C 1023.6 hPa North 1.3 km/h 8 km/h 69% 0 mm 70 W/m2
08:24 -1.3 °C -6.2 °C 1023.6 hPa NNW 0.6 km/h 8 km/h 69% 0 mm 65 W/m2
08:29 -1.2 °C -6.2 °C 1023.6 hPa NNW 1.1 km/h 8 km/h 68.9% 0 mm 67 W/m2
08:34 -1.2 °C -6.3 °C 1023.2 hPa North 0.2 km/h 8 km/h 68.2% 0 mm 67 W/m2
08:39 -1.1 °C -6.3 °C 1023.2 hPa NNE 1.4 km/h 4.8 km/h 68% 0 mm 67 W/m2
08:44 -1.1 °C -6.2 °C 1023.2 hPa NNE 0.3 km/h 4.8 km/h 68% 0 mm 65 W/m2
08:49 -1.1 °C -6.4 °C 1023.6 hPa NNE 0.3 km/h 4.8 km/h 67% 0 mm 67 W/m2
08:54 -1.1 °C -6.4 °C 1023.6 hPa NNE 1.8 km/h 8 km/h 67% 0 mm 69 W/m2
08:59 -1 °C -6.2 °C 1023.6 hPa North 2.4 km/h 11.3 km/h 68% 0 mm 74 W/m2
09:04 -0.9 °C -6.2 °C 1023.6 hPa North 1.1 km/h 11.3 km/h 67.5% 0 mm 90 W/m2
09:09 -0.9 °C -6.3 °C 1023.6 hPa North 0.3 km/h 6.4 km/h 67% 0 mm 93 W/m2
09:14 -0.9 °C -6.2 °C 1023.6 hPa NNW 2.3 km/h 8 km/h 67.2% 0 mm 88 W/m2
09:19 -0.8 °C -6.2 °C 1023.6 hPa NNW 1.1 km/h 8 km/h 67% 0 mm 95 W/m2
09:24 -0.7 °C -6.1 °C 1023.6 hPa North 0.3 km/h 8 km/h 67% 0 mm 98 W/m2
09:29 -0.7 °C -6 °C 1023.6 hPa NNW 1.1 km/h 8 km/h 67.2% 0 mm 107 W/m2
09:34 -0.6 °C -6.1 °C 1023.6 hPa NNW 1 km/h 9.7 km/h 66.3% 0 mm 109 W/m2
09:39 -0.6 °C -6.1 °C 1023.6 hPa NNW 0.5 km/h 9.7 km/h 66.1% 0 mm 107 W/m2
09:44 -0.5 °C -5.9 °C 1023.6 hPa NE 1 km/h 9.7 km/h 66.6% 0 mm 107 W/m2
09:49 -0.4 °C -5.8 °C 1023.6 hPa NE 0.5 km/h 9.7 km/h 66.9% 0 mm 109 W/m2
09:54 -0.3 °C -5.7 °C 1023.6 hPa NE 0.2 km/h 9.7 km/h 67% 0 mm 118 W/m2
09:59 -0.2 °C -5.7 °C 1023.6 hPa NE 0.2 km/h 9.7 km/h 66.7% 0 mm 149 W/m2
10:04 -0.1 °C -5.7 °C 1023.6 hPa NNW 0.8 km/h 9.7 km/h 66% 0 mm 163 W/m2
10:09 0.1 °C -5.6 °C 1023.6 hPa North 0.3 km/h 8 km/h 65.8% 0 mm 165 W/m2
10:14 0.2 °C -5.4 °C 1023.6 hPa North 0.2 km/h 8 km/h 65.9% 0 mm 163 W/m2
10:19 0.3 °C -5.7 °C 1023.6 hPa NNE 0.2 km/h 8 km/h 64.4% 0 mm 171 W/m2
10:24 0.3 °C -5.6 °C 1023.6 hPa Calm   8 km/h 64.9% 0 mm 167 W/m2
10:29 0.3 °C -5.6 °C 1023.6 hPa NE 1 km/h 8 km/h 64.5% 0 mm 156 W/m2
10:34 0.2 °C -5.9 °C 1023.6 hPa NE 0.2 km/h 8 km/h 63.5% 0 mm 169 W/m2
10:39 0.2 °C -5.8 °C 1023.6 hPa NNE 0.5 km/h 4.8 km/h 64.3% 0 mm 190 W/m2
10:44 0.2 °C -5.6 °C 1023.6 hPa Calm   4.8 km/h 65.1% 0 mm 193 W/m2
10:49 0.3 °C -5.6 °C 1023.9 hPa North 0.2 km/h 4.8 km/h 65% 0 mm 220 W/m2
10:54 0.4 °C -5.3 °C 1023.6 hPa NNE 0.3 km/h 4.8 km/h 65.4% 0 mm 220 W/m2
10:59 0.6 °C -5.3 °C 1023.9 hPa North 0.3 km/h 6.4 km/h 64.8% 0 mm 239 W/m2
11:04 0.7 °C -5.2 °C 1023.6 hPa North 0.6 km/h 6.4 km/h 64.6% 0 mm 258 W/m2
11:09 0.9 °C -5.1 °C 1023.9 hPa North 0.6 km/h 6.4 km/h 64.3% 0 mm 315 W/m2
11:14 1.1 °C -4.9 °C 1023.6 hPa Calm   6.4 km/h 64% 0 mm 336 W/m2
11:19 1.2 °C -5.1 °C 1023.6 hPa North 0.3 km/h 6.4 km/h 62.9% 0 mm 346 W/m2
11:24 1.4 °C -5 °C 1023.6 hPa Calm   6.4 km/h 62.4% 0 mm 292 W/m2
11:29 1.5 °C -4.9 °C 1023.6 hPa Calm   6.4 km/h 62.4% 0 mm 292 W/m2
11:34 1.6 °C -4.7 °C 1023.6 hPa Calm   6.4 km/h 62.7% 0 mm 236 W/m2
11:39 1.7 °C -4.8 °C 1023.6 hPa North 0.6 km/h 4.8 km/h 62.4% 0 mm 262 W/m2
11:44 1.6 °C -4.8 °C 1023.6 hPa North 0.2 km/h 4.8 km/h 62.3% 0 mm 292 W/m2
11:49 1.7 °C -4.8 °C 1023.6 hPa Calm   4.8 km/h 62.1% 0 mm 288 W/m2
11:54 1.6 °C -5 °C 1023.6 hPa Calm   4.8 km/h 61.5% 0 mm 250 W/m2
11:59 1.6 °C -4.8 °C 1023.2 hPa Calm   4.8 km/h 62.5% 0 mm 232 W/m2
12:00 1.6 °C -4.9 °C 1023.2 hPa Calm   4.8 km/h 62% 0 mm 227 W/m2
12:09 1.7 °C -4.5 °C 1023.2 hPa Calm     63.2% 0 mm 236 W/m2
12:14 1.8 °C -4.5 °C 1023.2 hPa Calm     63% 0 mm 223 W/m2
12:19 1.9 °C -4.2 °C 1023.2 hPa Calm     64% 0.25 mm 221 W/m2
12:22 1.8 °C -4.2 °C 1023.2 hPa Calm   1.6 km/h 64% 0.25 mm 218 W/m2
12:30 1.9 °C -4 °C 1022.9 hPa Calm   4.8 km/h 65% 0.51 mm 219 W/m2
13:00 1.9 °C -4.2 °C 1022.6 hPa Calm   3.2 km/h 64% 0.51 mm 210 W/m2
13:30 2.3 °C -3.6 °C 1022.6 hPa Calm   3.2 km/h 65% 0.51 mm 186 W/m2
14:00 2.4 °C -3.7 °C 1022.6 hPa Calm   3.2 km/h 64% 0 mm 153 W/m2
14:30 2.7 °C -3.2 °C 1022.2 hPa Calm   4.8 km/h 65% 0 mm 157 W/m2
15:00 2.4 °C -3.9 °C 1022.6 hPa Calm   6.4 km/h 63% 0 mm 165 W/m2
15:30 2.3 °C -3.6 °C 1022.6 hPa Calm   6.4 km/h 65% 0 mm 104 W/m2
16:04 2.2 °C -3.6 °C 1022.9 hPa Calm   6.4 km/h 65.2% 0 mm 104 W/m2
16:09 2.2 °C -3.5 °C 1022.9 hPa ENE 0.2 km/h 4.8 km/h 66% 0 mm 37 W/m2
16:14 2.2 °C -3.5 °C 1022.9 hPa ENE 0.2 km/h 4.8 km/h 65.8% 0 mm 49 W/m2
16:19 2.2 °C -3.3 °C 1022.9 hPa Calm   4.8 km/h 67% 0 mm 49 W/m2
16:24 2.2 °C -3.4 °C 1023.2 hPa Calm   4.8 km/h 66.4% 0 mm 39 W/m2
16:29 2.2 °C -3.7 °C 1023.2 hPa Calm   4.8 km/h 65% 0 mm 23 W/m2
16:34 2.1 °C -3.6 °C 1023.2 hPa Calm   4.8 km/h 65.6% 0 mm 30 W/m2
16:39 2.1 °C -3.6 °C 1023.2 hPa Calm     66% 0 mm 33 W/m2
16:44 2.1 °C -3.6 °C 1023.2 hPa Calm     66.4% 0 mm 32 W/m2
16:49 2.1 °C -3.4 °C 1023.2 hPa Calm     67% 0 mm 26 W/m2
16:54 2.1 °C -3.4 °C 1023.2 hPa Calm     67% 0 mm 21 W/m2
16:59 2.1 °C -3.4 °C 1023.2 hPa Calm     67% 0 mm 11 W/m2
17:04 2.1 °C -3.3 °C 1023.2 hPa Calm     67.4% 0 mm 5 W/m2
17:09 2 °C -3.3 °C 1023.6 hPa Calm     68% 0 mm 5 W/m2
17:14 2 °C -3.2 °C 1023.6 hPa Calm     68.6% 0 mm 0 W/m2
17:19 2 °C -3.2 °C 1023.2 hPa Calm     68.6% 0 mm 0 W/m2
17:24 1.9 °C -3.3 °C 1023.6 hPa Calm     68% 0 mm 0 W/m2
17:29 1.9 °C -3.2 °C 1023.6 hPa Calm     68.8% 0 mm 0 W/m2
17:34 1.9 °C -3.2 °C 1023.6 hPa Calm     69% 0 mm 0 W/m2
17:39 1.9 °C -3.2 °C 1023.2 hPa Calm     69% 0 mm 0 W/m2
17:44 1.9 °C -3.2 °C 1023.2 hPa ENE 0.2 km/h 3.2 km/h 69% 0 mm 0 W/m2
17:49 1.8 °C -3.1 °C 1023.2 hPa ENE 0.2 km/h 3.2 km/h 69.6% 0 mm 0 W/m2
17:54 1.8 °C -3.1 °C 1023.6 hPa ENE 0.3 km/h 3.2 km/h 70% 0 mm 0 W/m2
17:59 1.8 °C -3.1 °C 1023.6 hPa Calm   3.2 km/h 70% 0 mm 0 W/m2
18:04 1.8 °C -3.2 °C 1023.6 hPa Calm   3.2 km/h 69.4% 0 mm 0 W/m2
18:09 1.8 °C -3.1 °C 1023.6 hPa Calm     69.7% 0 mm 0 W/m2
18:14 1.8 °C -3.1 °C 1023.9 hPa Calm     70% 0 mm 0 W/m2
18:19 1.8 °C -3.1 °C 1023.9 hPa Calm     70% 0 mm 0 W/m2
18:24 1.8 °C -3.1 °C 1023.9 hPa Calm     70% 0 mm 0 W/m2
18:29 1.7 °C -2.9 °C 1023.9 hPa Calm     71% 0 mm 0 W/m2
18:34 1.7 °C -2.9 °C 1023.9 hPa Calm     71% 0 mm 0 W/m2
18:39 1.7 °C -2.9 °C 1023.6 hPa Calm     71% 0 mm 0 W/m2
18:44 1.7 °C -3 °C 1023.6 hPa Calm     71% 0 mm 0 W/m2
18:49 1.7 °C -3 °C 1023.6 hPa Calm     71% 0 mm 0 W/m2
18:54 1.7 °C -3 °C 1023.6 hPa Calm     71% 0 mm 0 W/m2
18:59 1.6 °C -2.9 °C 1023.9 hPa Calm     71.6% 0 mm 0 W/m2
19:04 1.7 °C -2.5 °C 1023.9 hPa NE 0.5 km/h 4.8 km/h 73.8% 0 mm 0 W/m2
19:09 1.7 °C -2.2 °C 1023.9 hPa Calm   4.8 km/h 75.1% 0 mm 0 W/m2
19:14 1.8 °C -1.9 °C 1024.3 hPa Calm   4.8 km/h 76% 0 mm 0 W/m2
19:19 1.8 °C -1.9 °C 1024.3 hPa Calm   4.8 km/h 76% 0 mm 0 W/m2
19:24 1.8 °C -2.2 °C 1024.3 hPa Calm   4.8 km/h 74.8% 0 mm 0 W/m2
19:29 1.8 °C -2.3 °C 1024.3 hPa Calm   4.8 km/h 74.1% 0 mm 0 W/m2
19:34 1.9 °C -1.9 °C 1024.3 hPa Calm   4.8 km/h 75.6% 0 mm 0 W/m2
19:39 1.9 °C -2.2 °C 1024.3 hPa Calm     74% 0 mm 0 W/m2
19:44 1.8 °C -2.4 °C 1024.3 hPa Calm     73% 0 mm 0 W/m2
19:49 1.8 °C -2.6 °C 1023.9 hPa Calm     72.2% 0 mm 0 W/m2
19:54 1.8 °C -2.7 °C 1023.9 hPa Calm     71.8% 0 mm 0 W/m2
19:59 1.8 °C -2.7 °C 1024.3 hPa Calm     72% 0 mm 0 W/m2
20:04 1.8 °C -2.8 °C 1024.3 hPa NE 1.9 km/h 3.2 km/h 71.2% 0 mm 0 W/m2
20:09 1.8 °C -2.7 °C 1024.3 hPa Calm   3.2 km/h 72% 0 mm 0 W/m2
20:14 1.8 °C -2.7 °C 1024.3 hPa Calm   3.2 km/h 71.8% 0 mm 0 W/m2
20:19 1.8 °C -2.9 °C 1023.9 hPa Calm   3.2 km/h 71% 0 mm 0 W/m2
20:24 1.8 °C -2.9 °C 1023.9 hPa NNE 0.8 km/h 9.7 km/h 71% 0 mm 0 W/m2
20:29 1.7 °C -3 °C 1023.9 hPa North 0.3 km/h 9.7 km/h 71% 0 mm 0 W/m2
20:34 1.7 °C -3.1 °C 1023.9 hPa North 1.1 km/h 9.7 km/h 71% 0 mm 0 W/m2
20:39 1.6 °C -3.1 °C 1023.9 hPa North 0.5 km/h 8 km/h 71% 0 mm 0 W/m2
20:44 1.6 °C -3.1 °C 1023.9 hPa North 1 km/h 8 km/h 71.5% 0 mm 0 W/m2
20:49 1.6 °C -3.1 °C 1023.9 hPa North 1 km/h 8 km/h 71.2% 0 mm 0 W/m2
20:54 1.5 °C -3.2 °C 1023.9 hPa North 1.6 km/h 8 km/h 71% 0 mm 0 W/m2
20:59 1.5 °C -3.2 °C 1023.9 hPa Calm   8 km/h 71% 0 mm 0 W/m2
21:04 1.4 °C -3.2 °C 1023.6 hPa North 2.1 km/h 9.7 km/h 71% 0 mm 0 W/m2
21:09 1.4 °C -3.2 °C 1023.9 hPa North 1.1 km/h 9.7 km/h 71.4% 0 mm 0 W/m2
21:14 1.3 °C -3.3 °C 1023.9 hPa North 1.9 km/h 9.7 km/h 71.1% 0 mm 0 W/m2
21:19 1.3 °C -3.3 °C 1023.9 hPa North 1.4 km/h 9.7 km/h 71.4% 0 mm 0 W/m2
21:24 1.3 °C -3.2 °C 1023.9 hPa NNW 2.7 km/h 9.7 km/h 72% 0 mm 0 W/m2
21:29 1.2 °C -3.3 °C 1023.9 hPa NNW 1.1 km/h 9.7 km/h 72% 0 mm 0 W/m2
21:34 1.2 °C -3.3 °C 1023.9 hPa NNW 1.6 km/h 9.7 km/h 72% 0 mm 0 W/m2
21:39 1.2 °C -3.3 °C 1023.9 hPa NNW 2.3 km/h 11.3 km/h 72% 0 mm 0 W/m2
21:44 1.2 °C -3.3 °C 1023.9 hPa NNW 1 km/h 11.3 km/h 72% 0 mm 0 W/m2
21:49 1.2 °C -3.3 °C 1023.9 hPa NNW 3.1 km/h 17.7 km/h 72% 0 mm 0 W/m2
21:54 1.1 °C -3.3 °C 1023.9 hPa NNE 0.3 km/h 17.7 km/h 72% 0 mm 0 W/m2
21:59 1.1 °C -3.3 °C 1023.9 hPa Calm   17.7 km/h 72.1% 0 mm 0 W/m2
22:04 1.1 °C -3.3 °C 1023.9 hPa Calm   17.7 km/h 72.5% 0 mm 0 W/m2
22:09 1.1 °C -3.4 °C 1023.9 hPa North 2.1 km/h 8 km/h 72.2% 0 mm 0 W/m2
22:14 1 °C -3.5 °C 1023.9 hPa NNW 1.9 km/h 8 km/h 72% 0 mm 0 W/m2
22:19 0.9 °C -3.6 °C 1023.9 hPa NNW 2.1 km/h 8 km/h 72% 0 mm 0 W/m2
22:24 0.8 °C -3.8 °C 1023.9 hPa NNW 5 km/h 14.5 km/h 71.1% 0 mm 0 W/m2
22:29 0.8 °C -3.8 °C 1023.9 hPa North 1.6 km/h 14.5 km/h 71.2% 0 mm 0 W/m2
22:34 0.7 °C -3.8 °C 1023.9 hPa North 1.4 km/h 14.5 km/h 72% 0 mm 0 W/m2
22:39 0.7 °C -3.8 °C 1023.9 hPa North 2.7 km/h 12.9 km/h 72% 0 mm 0 W/m2
22:42 0.6 °C -3.8 °C 1023.9 hPa NNW 2.1 km/h 12.9 km/h 72% 0 mm 0 W/m2
23:04 0.4 °C -4.1 °C 1023.9 hPa Calm     72% 0 mm 0 W/m2
23:09 0.4 °C -4.1 °C 1023.9 hPa North 1.6 km/h 6.4 km/h 72% 0 mm 0 W/m2
23:14 0.3 °C -4.1 °C 1023.9 hPa NNW 1.3 km/h 8 km/h 72% 0 mm 0 W/m2
23:19 0.3 °C -4.2 °C 1023.9 hPa NNW 1.4 km/h 8 km/h 72% 0 mm 0 W/m2
23:24 0.3 °C -4.2 °C 1023.9 hPa NNW 1 km/h 8 km/h 72% 0 mm 0 W/m2
23:29 0.3 °C -4.2 °C 1023.9 hPa NNW 1 km/h 8 km/h 72% 0 mm 0 W/m2
23:34 0.3 °C -4.2 °C 1023.9 hPa Calm   8 km/h 72% 0 mm 0 W/m2
23:39 0.2 °C -4.2 °C 1024.3 hPa North 1.1 km/h 8 km/h 72% 0 mm 0 W/m2
23:44 0.2 °C -4.2 °C 1024.3 hPa NNW 0.6 km/h 8 km/h 72% 0 mm 0 W/m2
23:49 0.2 °C -4.1 °C 1024.3 hPa NNW 0.8 km/h 8 km/h 73% 0 mm 0 W/m2
23:54 0.2 °C -4.2 °C 1024.3 hPa NNW 1.3 km/h 8 km/h 72.6% 0 mm 0 W/m2
23:59 0.2 °C -4.2 °C 1024.3 hPa NNW 0.2 km/h 8 km/h 72.4% 0 mm 0 W/m2
Hartford County Weather
Compliments of Weather Underground - 2 mb